DUNK1: Neosho River Nr Dunlap, KS

                                SHEF ID:       DUNK1     NEOSHO R NR DUNLAP, KS
STATION TYPE:
Regulating: Stage = 26.00, Flow = 6358

PRECIP STAGE RIV-FLOW BAT-LOAD
in ft cfs volt
Ccp-Rev Ccp-Rev Ccp-Rev Ccp-Rev
(America/Chicago)
04/27 00:00 0.00 16.20 1256 12.25
04/27 01:00 0.00 16.86 1453 12.22
04/27 02:00 0.00 17.21 1558 12.21
04/27 03:00 0.18 17.19 1552 12.17
04/27 04:00 0.02 17.01 1498 12.14
04/27 05:00 0.74 17.21 1558 12.11
04/27 06:00 0.12 17.10 1525 12.08
04/27 07:00 0.00 17.47 1635 12.04
04/27 08:00 0.00 18.63 1981 12.81
04/27 09:00 0.00 20.48 2598 13.45
04/27 10:00 0.00 22.49 3366 13.42
04/27 11:00 0.00 24.15 4723 13.36
04/27 12:00 0.00 25.43 5854 13.55
04/27 13:00 0.00 26.25 6579 13.18
04/27 14:00 0.00 26.70 6976 13.24
04/27 15:00 0.00 26.81 7074 13.68
04/27 16:00 0.00 26.53 6826 13.52
04/27 17:00 0.00 25.88 6252 12.86
04/27 18:00 0.00 24.89 5377 12.77
04/27 19:00 0.00 23.70 4325 12.69
04/27 20:00 0.00 22.44 3347 12.66
04/27 21:00 0.00 21.19 2869 12.36
04/27 22:00 0.00 20.04 2430 12.30
04/27 23:00 0.01 18.97 2082 12.27
Data processed at Tue 28Apr2026 04:44 GMT

NOTICE: If you are parsing this page

Please convert to using our Data API. Starting early 2026 we will be migrating to: https://water.usace.army.mil with modern pages rendered in JavaScript. When this migration completes you will no longer be able to scrape this page! CWMSDataAPI (CDA)

Timeseries IDs (TSIDs)

TSIDs used from left to right in the data table
DUNL.Precip-Inc.Total.1Hour.1Hour.Ccp-Rev
DUNL.Stage.Inst.1Hour.0.Ccp-Rev
DUNL.Flow.Inst.1Hour.0.Ccp-Rev
DUNL.Volt-Battery Load.Inst.1Hour.0.Ccp-Rev

                            

All information presented herein is the property of the government of the United States of America and may be revised or deleted at any time without prior notice. Dissemination of this information without the expressed written consent of the Public Affairs Office, Tulsa District U.S. Army Corps of Engineers is strictly prohibited. These data are gathered electronically and, as presented, have NOT undergone any form of quality control. These data are NOT guaranteed to be valid or correct.